createdAt,value
2022-11-26T00:02:25.058Z,70.74
2022-11-26T00:05:00.143Z,71.24
2022-11-26T00:07:36.586Z,71.44
2022-11-26T00:10:18.905Z,71.72
2022-11-26T00:12:51.769Z,71.99
2022-11-26T00:15:26.429Z,71.80
2022-11-26T00:17:59.475Z,72.11
2022-11-26T00:20:33.150Z,71.79
2022-11-26T00:23:06.294Z,71.82
2022-11-26T00:25:44.448Z,72.09
2022-11-26T00:28:27.074Z,71.54
2022-11-26T00:31:02.569Z,71.84
2022-11-26T00:33:35.542Z,71.97
2022-11-26T00:36:18.071Z,72.13
2022-11-26T00:38:55.032Z,71.61
2022-11-26T00:41:32.799Z,71.93
2022-11-26T00:44:06.349Z,71.63
2022-11-26T00:46:42.686Z,72.05
2022-11-26T00:49:19.438Z,72.09
2022-11-26T00:51:56.605Z,71.65
2022-11-26T00:54:29.774Z,71.98
2022-11-26T00:57:06.558Z,71.75
2022-11-26T00:59:39.414Z,71.51
2022-11-26T01:03:10.883Z,71.73
2022-11-26T01:05:44.624Z,71.05
2022-11-26T01:08:24.427Z,71.32
2022-11-26T01:10:57.401Z,71.30
2022-11-26T01:13:32.033Z,71.04
2022-11-26T01:16:16.190Z,70.91
2022-11-26T01:18:50.687Z,70.84
2022-11-26T01:21:24.299Z,70.35
2022-11-26T01:23:57.277Z,70.34
2022-11-26T01:26:34.856Z,70.30
2022-11-26T01:29:15.663Z,70.22
2022-11-26T01:31:49.188Z,70.93
2022-11-26T01:34:22.199Z,70.63
2022-11-26T01:36:54.981Z,70.63
2022-11-26T01:39:27.874Z,70.67
2022-11-26T01:42:08.420Z,70.74
2022-11-26T01:44:43.064Z,71.12
2022-11-26T01:47:24.691Z,70.24
2022-11-26T01:50:40.167Z,70.35
2022-11-26T01:53:16.400Z,71.01
2022-11-26T01:55:54.305Z,70.31
2022-11-26T01:58:32.563Z,70.26
2022-11-26T02:01:08.943Z,70.87
2022-11-26T02:03:46.585Z,70.58
2022-11-26T02:06:24.705Z,70.16
2022-11-26T02:08:58.150Z,70.85
2022-11-26T02:11:31.205Z,70.48
2022-11-26T02:14:07.454Z,70.27
2022-11-26T02:17:01.155Z,70.10
2022-11-26T02:20:06.067Z,70.39
2022-11-26T02:23:00.106Z,70.48
2022-11-26T02:25:43.290Z,70.52
2022-11-26T02:28:34.495Z,70.36
2022-11-26T02:31:13.057Z,70.67
2022-11-26T02:33:53.315Z,70.92
2022-11-26T02:36:32.923Z,70.73
2022-11-26T02:39:14.128Z,70.55
2022-11-26T02:41:50.096Z,70.23
2022-11-26T02:44:25.384Z,70.82
2022-11-26T02:47:03.914Z,70.44
2022-11-26T02:49:39.322Z,70.08
2022-11-26T02:52:15.471Z,70.25
2022-11-26T02:54:50.785Z,70.54
2022-11-26T02:57:28.039Z,70.29
2022-11-26T03:00:01.328Z,70.57
2022-11-26T03:02:41.682Z,70.76
2022-11-26T03:05:17.651Z,70.62
2022-11-26T03:07:53.139Z,71.02
2022-11-26T03:10:28.172Z,71.00
2022-11-26T03:13:01.114Z,71.46
2022-11-26T03:15:34.203Z,70.54
2022-11-26T03:18:08.506Z,71.25
2022-11-26T03:20:41.439Z,70.86
2022-11-26T03:23:14.252Z,71.05
2022-11-26T03:25:47.254Z,70.71
2022-11-26T03:28:20.054Z,70.92
2022-11-26T03:30:53.620Z,70.77
2022-11-26T03:33:27.884Z,71.11
2022-11-26T03:36:00.853Z,71.05
2022-11-26T03:38:33.689Z,70.66
2022-11-26T03:41:06.806Z,70.25
2022-11-26T03:43:39.625Z,70.44
2022-11-26T03:46:12.542Z,70.71
2022-11-26T03:48:46.831Z,70.37
2022-11-26T03:51:19.632Z,70.58
2022-11-26T03:53:52.424Z,70.02
2022-11-26T03:56:25.378Z,70.24
2022-11-26T03:58:58.215Z,70.09
2022-11-26T04:01:31.073Z,69.80
2022-11-26T04:04:05.793Z,69.94
2022-11-26T04:06:38.618Z,70.58
2022-11-26T04:09:11.479Z,69.95
2022-11-26T04:11:44.325Z,70.00
2022-11-26T04:14:17.581Z,70.15
2022-11-26T04:16:50.520Z,69.84
2022-11-26T04:19:24.811Z,70.39
2022-11-26T04:21:57.736Z,70.16
2022-11-26T04:24:31.021Z,69.65
2022-11-26T04:27:04.063Z,69.97
2022-11-26T04:29:37.491Z,69.23
2022-11-26T04:32:10.473Z,69.78
2022-11-26T04:34:44.651Z,69.54
2022-11-26T04:37:17.497Z,69.64
2022-11-26T04:39:50.285Z,69.56
2022-11-26T04:42:23.213Z,69.16
2022-11-26T04:44:56.086Z,68.75
2022-11-26T04:47:28.907Z,68.62
2022-11-26T04:50:03.114Z,68.60
2022-11-26T04:52:36.035Z,68.61
2022-11-26T04:55:09.489Z,68.63
2022-11-26T04:57:42.323Z,67.96
2022-11-26T05:00:17.025Z,68.16
2022-11-26T05:02:49.884Z,68.31
2022-11-26T05:05:24.155Z,68.25
2022-11-26T05:07:57.097Z,68.22
2022-11-26T05:10:29.858Z,68.63
2022-11-26T05:13:02.804Z,68.97
2022-11-26T05:15:35.632Z,68.81
2022-11-26T05:18:08.576Z,69.14
2022-11-26T05:20:42.855Z,69.07
2022-11-26T05:23:15.761Z,69.01
2022-11-26T05:25:48.957Z,68.83
2022-11-26T05:28:21.832Z,68.80
2022-11-26T05:30:58.991Z,69.06
2022-11-26T05:33:32.464Z,68.85
2022-11-26T05:36:07.087Z,69.11
2022-11-26T05:38:40.019Z,69.23
2022-11-26T05:41:12.884Z,68.97
2022-11-26T05:43:45.722Z,69.40
2022-11-26T05:46:19.988Z,69.23
2022-11-26T05:48:53.043Z,69.70
2022-11-26T05:51:27.471Z,69.97
2022-11-26T05:54:00.471Z,69.86
2022-11-26T05:56:33.258Z,69.60
2022-11-26T05:59:06.091Z,69.91
2022-11-26T06:01:38.981Z,69.28
2022-11-26T06:04:11.873Z,69.74
2022-11-26T06:06:46.071Z,69.79
2022-11-26T06:09:18.875Z,70.68
2022-11-26T06:11:51.760Z,70.93
2022-11-26T06:14:24.622Z,71.29
2022-11-26T06:16:57.487Z,72.25
2022-11-26T06:19:30.334Z,72.61
2022-11-26T06:22:04.804Z,72.18
2022-11-26T06:24:38.036Z,72.63
2022-11-26T06:27:11.272Z,72.75
2022-11-26T06:29:45.158Z,72.94
2022-11-26T06:32:17.989Z,73.56
2022-11-26T06:34:53.985Z,73.22
2022-11-26T06:37:28.684Z,72.59
2022-11-26T06:40:01.731Z,72.59
2022-11-26T06:42:35.227Z,72.07
2022-11-26T06:45:08.988Z,71.32
2022-11-26T06:47:41.923Z,71.12
2022-11-26T06:50:15.494Z,70.80
2022-11-26T06:52:51.780Z,70.62
2022-11-26T06:55:24.649Z,71.00
2022-11-26T06:57:57.447Z,70.16
2022-11-26T07:00:30.413Z,70.10
2022-11-26T07:03:03.271Z,69.93
2022-11-26T07:05:36.397Z,69.96
2022-11-26T07:08:10.608Z,70.19
2022-11-26T07:10:48.669Z,69.79
2022-11-26T07:13:21.990Z,69.86
2022-11-26T07:15:54.848Z,69.65
2022-11-26T07:18:27.722Z,70.04
2022-11-26T07:21:06.285Z,70.18
2022-11-26T07:23:41.806Z,70.08
2022-11-26T07:26:15.636Z,70.70
2022-11-26T07:28:48.419Z,71.34
2022-11-26T07:31:22.815Z,72.59
2022-11-26T07:33:55.713Z,73.64
2022-11-26T07:36:30.925Z,73.53
2022-11-26T07:39:05.317Z,74.23
2022-11-26T07:41:38.567Z,74.35
2022-11-26T07:44:14.375Z,74.52
2022-11-26T07:46:47.250Z,74.74
2022-11-26T07:49:20.266Z,75.16
2022-11-26T07:51:53.184Z,75.23
2022-11-26T07:54:27.341Z,75.65
2022-11-26T07:57:00.180Z,75.42
2022-11-26T07:59:32.979Z,75.27
2022-11-26T08:02:05.868Z,74.92
2022-11-26T08:04:39.044Z,74.21
2022-11-26T08:07:16.067Z,73.63
2022-11-26T08:09:54.267Z,73.61
2022-11-26T08:12:27.533Z,73.19
2022-11-26T08:15:00.325Z,72.26
2022-11-26T08:17:33.178Z,71.85
2022-11-26T08:20:07.490Z,72.01
2022-11-26T08:22:40.732Z,71.28
2022-11-26T08:25:15.020Z,71.12
2022-11-26T08:27:47.901Z,71.17
2022-11-26T08:30:20.833Z,70.72
2022-11-26T08:32:53.883Z,71.36
2022-11-26T08:35:44.403Z,71.32
2022-11-26T08:38:19.732Z,71.40
2022-11-26T08:40:54.443Z,70.87
2022-11-26T08:43:45.014Z,71.04
2022-11-26T08:46:21.838Z,71.49
2022-11-26T08:48:56.448Z,70.88
2022-11-26T08:51:29.274Z,70.71
2022-11-26T08:54:02.509Z,70.97
2022-11-26T08:56:37.335Z,70.18
2022-11-26T08:59:10.175Z,70.85
2022-11-26T09:01:43.189Z,70.83
2022-11-26T09:04:16.192Z,70.56
2022-11-26T09:06:48.983Z,70.22
2022-11-26T09:09:21.815Z,70.81
2022-11-26T09:11:59.961Z,70.49
2022-11-26T09:14:37.905Z,70.77
2022-11-26T09:17:12.658Z,70.87
2022-11-26T09:19:45.502Z,70.91
2022-11-26T09:22:18.263Z,70.51
2022-11-26T09:24:51.108Z,70.83
2022-11-26T09:27:25.324Z,70.20
2022-11-26T09:29:58.243Z,69.95
2022-11-26T09:32:34.306Z,70.55
2022-11-26T09:35:08.276Z,70.54
2022-11-26T09:37:41.056Z,69.90
2022-11-26T09:40:19.515Z,69.81
2022-11-26T09:43:05.314Z,69.25
2022-11-26T09:45:45.653Z,69.22
2022-11-26T09:48:24.191Z,69.78
2022-11-26T09:51:04.711Z,68.96
2022-11-26T09:53:42.806Z,69.49
2022-11-26T09:56:22.174Z,69.61
2022-11-26T09:59:01.705Z,68.87
2022-11-26T10:01:35.682Z,68.36
2022-11-26T10:04:09.842Z,68.48
2022-11-26T10:06:52.425Z,67.36
2022-11-26T10:09:37.884Z,67.24
2022-11-26T10:12:26.476Z,66.88
2022-11-26T10:15:11.543Z,66.16
2022-11-26T10:17:55.004Z,65.93
2022-11-26T10:20:46.638Z,66.32
2022-11-26T10:23:27.127Z,65.97
2022-11-26T10:26:06.982Z,66.21
2022-11-26T10:28:46.314Z,66.06
2022-11-26T10:31:23.573Z,66.34
2022-11-26T10:33:58.984Z,66.15
2022-11-26T10:36:36.649Z,65.84
2022-11-26T10:39:14.258Z,66.79
2022-11-26T10:41:47.941Z,66.79
2022-11-26T10:44:32.238Z,66.45
2022-11-26T10:47:26.008Z,66.51
2022-11-26T10:50:40.029Z,67.25
2022-11-26T10:53:20.709Z,66.55
2022-11-26T10:55:57.125Z,67.02
2022-11-26T10:58:35.080Z,67.05
2022-11-26T11:01:08.867Z,67.24
2022-11-26T11:04:08.744Z,67.09
2022-11-26T11:06:43.793Z,67.50
2022-11-26T11:09:29.145Z,67.04
2022-11-26T11:12:26.065Z,67.60
2022-11-26T11:15:20.243Z,67.75
2022-11-26T11:17:59.167Z,67.69
2022-11-26T11:20:39.208Z,67.80
2022-11-26T11:23:40.027Z,67.89
2022-11-26T11:26:22.448Z,68.12
2022-11-26T11:28:56.817Z,68.61
2022-11-26T11:31:29.613Z,68.74
2022-11-26T11:34:14.993Z,67.31
2022-11-26T11:36:59.651Z,67.15
2022-11-26T11:39:33.910Z,66.97
2022-11-26T11:42:18.165Z,66.58
2022-11-26T11:44:53.374Z,64.92
2022-11-26T11:47:37.247Z,64.26
2022-11-26T11:50:22.488Z,63.42
2022-11-26T11:53:09.778Z,64.34
2022-11-26T11:56:02.223Z,63.41
2022-11-26T11:59:02.033Z,64.50
2022-11-26T12:01:51.687Z,65.80
2022-11-26T12:04:39.790Z,66.17
2022-11-26T12:07:36.768Z,66.59
2022-11-26T12:10:16.186Z,66.77
2022-11-26T12:12:52.482Z,66.48
2022-11-26T12:15:29.493Z,67.04
2022-11-26T12:18:08.170Z,66.85
2022-11-26T12:20:45.088Z,67.05
2022-11-26T12:23:29.446Z,67.26
2022-11-26T12:26:12.050Z,67.50
2022-11-26T12:28:53.800Z,66.93
2022-11-26T12:31:32.189Z,67.16
2022-11-26T12:34:11.425Z,66.59
2022-11-26T12:36:51.206Z,67.06
2022-11-26T12:39:37.037Z,66.04
2022-11-26T12:42:18.118Z,66.01
2022-11-26T12:44:54.848Z,66.04
2022-11-26T12:47:34.128Z,65.65
2022-11-26T12:50:16.816Z,65.72
2022-11-26T12:52:58.706Z,65.94
2022-11-26T12:55:34.411Z,66.22
2022-11-26T12:58:15.521Z,65.16
2022-11-26T13:00:49.767Z,65.52
2022-11-26T13:03:28.516Z,65.88
2022-11-26T13:06:08.055Z,65.69
2022-11-26T13:08:49.751Z,66.28
2022-11-26T13:11:38.378Z,65.78
2022-11-26T13:14:19.590Z,65.99
2022-11-26T13:16:58.273Z,65.93
2022-11-26T13:19:37.360Z,66.17
2022-11-26T13:22:41.653Z,66.52
2022-11-26T13:25:38.454Z,66.38
2022-11-26T13:28:22.817Z,66.86
2022-11-26T13:31:15.777Z,66.43
2022-11-26T13:34:04.997Z,66.68
2022-11-26T13:36:56.303Z,66.83
2022-11-26T13:40:08.935Z,66.71
2022-11-26T13:43:03.574Z,66.60
2022-11-26T13:45:51.485Z,65.93
2022-11-26T13:48:34.820Z,65.00
2022-11-26T13:51:15.375Z,65.42
2022-11-26T13:53:53.381Z,65.42
2022-11-26T13:56:32.184Z,65.42
2022-11-26T13:59:09.107Z,65.66
2022-11-26T14:01:42.641Z,65.70
2022-11-26T14:04:53.402Z,65.26
2022-11-26T14:07:26.594Z,65.75
2022-11-26T14:10:01.176Z,65.82
2022-11-26T14:13:17.412Z,65.49
2022-11-26T14:16:02.521Z,65.18
2022-11-26T14:18:56.640Z,65.54
2022-11-26T14:21:31.649Z,66.30
2022-11-26T14:24:04.862Z,66.72
2022-11-26T14:26:38.534Z,66.47
2022-11-26T14:29:15.236Z,66.98
2022-11-26T14:31:52.188Z,66.66
2022-11-26T14:34:32.306Z,66.83
2022-11-26T14:37:15.092Z,66.63
2022-11-26T14:39:58.216Z,67.42
2022-11-26T14:42:31.397Z,67.02
2022-11-26T14:45:05.847Z,67.61
2022-11-26T14:47:38.609Z,67.11
2022-11-26T14:50:15.181Z,67.44
2022-11-26T14:52:56.518Z,67.50
2022-11-26T14:55:31.718Z,66.94
2022-11-26T14:58:09.733Z,66.77
2022-11-26T15:00:42.874Z,67.21
2022-11-26T15:03:23.985Z,66.95
2022-11-26T15:05:57.072Z,66.79
2022-11-26T15:08:31.391Z,66.52
2022-11-26T15:11:08.070Z,66.58
2022-11-26T15:13:45.956Z,66.93
2022-11-26T15:16:33.048Z,65.84
2022-11-26T15:19:07.797Z,67.02
2022-11-26T15:21:41.784Z,66.37
2022-11-26T15:24:16.898Z,66.50
2022-11-26T15:26:49.845Z,66.53
2022-11-26T15:29:35.480Z,66.28
2022-11-26T15:32:25.580Z,66.21
2022-11-26T15:35:01.308Z,65.96
2022-11-26T15:37:35.174Z,66.21
2022-11-26T15:40:21.554Z,66.47
2022-11-26T15:42:58.550Z,66.10
2022-11-26T15:45:39.053Z,66.40
2022-11-26T15:48:27.747Z,66.36
2022-11-26T15:51:04.924Z,66.48
2022-11-26T15:53:45.467Z,66.59
2022-11-26T15:56:21.722Z,67.19
2022-11-26T15:58:58.229Z,66.52
2022-11-26T16:01:35.196Z,66.77
2022-11-26T16:04:40.068Z,66.63
2022-11-26T16:07:14.842Z,66.96
2022-11-26T16:09:49.445Z,66.88
2022-11-26T16:12:44.309Z,66.86
2022-11-26T16:15:22.624Z,66.88
2022-11-26T16:17:55.738Z,67.14
2022-11-26T16:20:30.435Z,66.87
2022-11-26T16:23:03.326Z,67.26
2022-11-26T16:25:37.251Z,67.10
2022-11-26T16:28:16.894Z,67.30
2022-11-26T16:30:52.783Z,67.33
2022-11-26T16:33:28.145Z,67.70
2022-11-26T16:36:02.045Z,67.35
2022-11-26T16:38:34.858Z,67.60
2022-11-26T16:41:12.440Z,67.37
2022-11-26T16:43:46.813Z,67.27
2022-11-26T16:46:23.442Z,67.44
2022-11-26T16:48:56.472Z,68.06
2022-11-26T16:51:29.486Z,67.66
2022-11-26T16:54:02.295Z,68.29
2022-11-26T16:56:38.528Z,67.83
2022-11-26T16:59:20.091Z,68.00
2022-11-26T17:01:53.013Z,68.53
2022-11-26T17:04:25.857Z,68.24
2022-11-26T17:06:58.955Z,68.89
2022-11-26T17:09:31.834Z,68.29
2022-11-26T17:12:04.880Z,68.35
2022-11-26T17:14:39.048Z,68.77
2022-11-26T17:17:13.872Z,69.00
2022-11-26T17:19:46.764Z,68.63
2022-11-26T17:22:20.313Z,68.57
2022-11-26T17:24:53.089Z,68.22
2022-11-26T17:27:26.720Z,68.63
2022-11-26T17:30:00.931Z,68.80
2022-11-26T17:32:33.756Z,69.03
2022-11-26T17:35:06.843Z,68.80
2022-11-26T17:37:40.567Z,68.23
2022-11-26T17:40:18.777Z,68.75
2022-11-26T17:42:52.085Z,68.54
2022-11-26T17:45:26.465Z,68.49
2022-11-26T17:47:59.403Z,69.06
2022-11-26T17:50:33.492Z,68.47
2022-11-26T17:53:06.487Z,68.99
2022-11-26T17:55:39.661Z,68.97
2022-11-26T17:58:13.104Z,68.81
2022-11-26T18:00:47.268Z,68.75
2022-11-26T18:03:20.107Z,69.45
2022-11-26T18:05:52.880Z,68.81
2022-11-26T18:08:25.736Z,69.32
2022-11-26T18:10:58.524Z,68.87
2022-11-26T18:13:31.337Z,69.52
2022-11-26T18:16:05.947Z,69.20
2022-11-26T18:18:39.896Z,69.23
2022-11-26T18:21:13.543Z,69.06
2022-11-26T18:23:48.159Z,68.94
2022-11-26T18:26:20.972Z,68.79
2022-11-26T18:28:53.807Z,69.19
2022-11-26T18:31:28.417Z,68.80
2022-11-26T18:34:01.801Z,69.32
2022-11-26T18:36:34.642Z,68.93
2022-11-26T18:39:07.547Z,69.07
2022-11-26T18:41:40.326Z,68.89
2022-11-26T18:44:13.340Z,69.36
2022-11-26T18:46:47.478Z,69.38
2022-11-26T18:49:20.542Z,69.02
2022-11-26T18:51:53.313Z,69.37
2022-11-26T18:54:26.167Z,69.08
2022-11-26T18:56:59.004Z,69.06
2022-11-26T18:59:31.976Z,69.09
2022-11-26T19:02:06.221Z,69.17
2022-11-26T19:04:39.855Z,69.04
2022-11-26T19:07:13.880Z,69.76
2022-11-26T19:09:46.841Z,69.51
2022-11-26T19:12:19.642Z,69.57
2022-11-26T19:14:52.523Z,69.48
2022-11-26T19:17:27.164Z,69.62
2022-11-26T19:20:00.236Z,69.96
2022-11-26T19:22:33.054Z,69.48
2022-11-26T19:25:06.696Z,70.03
2022-11-26T19:27:39.606Z,70.01
2022-11-26T19:30:17.367Z,70.32
2022-11-26T19:32:51.576Z,70.28
2022-11-26T19:35:24.783Z,70.70
2022-11-26T19:37:57.554Z,70.25
2022-11-26T19:40:30.406Z,70.89
2022-11-26T19:43:03.228Z,70.63
2022-11-26T19:45:36.080Z,70.94
2022-11-26T19:48:10.307Z,70.92
2022-11-26T19:50:43.173Z,70.84
2022-11-26T19:53:15.972Z,71.04
2022-11-26T19:55:56.349Z,70.87
2022-11-26T19:58:30.680Z,70.97
2022-11-26T20:01:06.727Z,70.62
2022-11-26T20:03:41.117Z,70.92
2022-11-26T20:06:16.713Z,70.82
2022-11-26T20:08:50.367Z,70.34
2022-11-26T20:11:25.338Z,70.72
2022-11-26T20:13:58.941Z,69.93
2022-11-26T20:16:33.519Z,70.48
2022-11-26T20:19:08.373Z,70.64
2022-11-26T20:21:41.341Z,70.12
2022-11-26T20:24:17.695Z,70.22
2022-11-26T20:26:51.011Z,69.81
2022-11-26T20:29:25.184Z,69.76
2022-11-26T20:31:58.007Z,69.86
2022-11-26T20:34:33.659Z,69.46
2022-11-26T20:37:06.464Z,69.28
2022-11-26T20:39:39.759Z,69.59
2022-11-26T20:42:15.232Z,69.51
2022-11-26T20:44:48.022Z,69.22
2022-11-26T20:47:20.999Z,69.27
2022-11-26T20:49:55.571Z,69.44
2022-11-26T20:52:28.413Z,69.39
2022-11-26T20:55:01.231Z,69.47
2022-11-26T20:57:36.518Z,69.85
2022-11-26T21:00:10.691Z,69.96
2022-11-26T21:02:43.651Z,69.65
2022-11-26T21:05:18.525Z,69.52
2022-11-26T21:07:52.134Z,69.81
2022-11-26T21:10:26.678Z,69.66
2022-11-26T21:12:59.600Z,69.72
2022-11-26T21:15:32.390Z,69.47
2022-11-26T21:18:05.731Z,69.47
2022-11-26T21:20:42.198Z,69.46
2022-11-26T21:23:15.154Z,69.22
2022-11-26T21:25:48.182Z,69.53
2022-11-26T21:28:21.113Z,69.35
2022-11-26T21:30:53.948Z,69.47
2022-11-26T21:33:26.829Z,69.35
2022-11-26T21:36:06.620Z,69.11
2022-11-26T21:38:40.961Z,69.14
2022-11-26T21:41:15.613Z,69.10
2022-11-26T21:43:49.518Z,68.97
2022-11-26T21:46:23.727Z,68.97
2022-11-26T21:48:58.002Z,69.13
2022-11-26T21:51:32.228Z,69.09
2022-11-26T21:54:05.475Z,69.00
2022-11-26T21:56:38.393Z,69.22
2022-11-26T21:59:11.386Z,69.12
2022-11-26T22:01:44.414Z,69.39
2022-11-26T22:04:19.681Z,69.73
2022-11-26T22:06:53.991Z,69.40
2022-11-26T22:09:26.849Z,69.47
2022-11-26T22:12:00.151Z,69.35
2022-11-26T22:14:32.980Z,69.28
2022-11-26T22:17:05.873Z,69.51
2022-11-26T22:19:38.916Z,69.11
2022-11-26T22:22:13.282Z,69.28
2022-11-26T22:24:46.127Z,69.40
2022-11-26T22:27:18.954Z,69.85
2022-11-26T22:29:51.756Z,70.28
2022-11-26T22:32:24.542Z,70.82
2022-11-26T22:34:57.688Z,71.66
2022-11-26T22:37:32.292Z,72.17
2022-11-26T22:40:06.004Z,72.39
2022-11-26T22:42:41.431Z,73.02
2022-11-26T22:45:14.499Z,73.26
2022-11-26T22:47:51.467Z,73.37
2022-11-26T22:50:25.782Z,73.66
2022-11-26T22:52:59.952Z,73.86
2022-11-26T22:55:32.772Z,73.84
2022-11-26T22:58:05.607Z,73.27
2022-11-26T23:00:47.037Z,73.30
2022-11-26T23:03:21.592Z,73.11
2022-11-26T23:05:55.204Z,72.94
2022-11-26T23:08:29.481Z,73.17
2022-11-26T23:11:06.592Z,72.63
2022-11-26T23:13:41.131Z,72.91
2022-11-26T23:16:14.334Z,72.62
2022-11-26T23:18:47.206Z,72.10
2022-11-26T23:21:22.142Z,72.37
2022-11-26T23:23:57.056Z,72.12
2022-11-26T23:26:32.937Z,72.37
2022-11-26T23:29:06.830Z,72.29
2022-11-26T23:31:41.696Z,71.66
2022-11-26T23:34:15.735Z,71.54
2022-11-26T23:36:48.571Z,71.51
2022-11-26T23:39:22.714Z,71.33
2022-11-26T23:41:55.525Z,71.24
2022-11-26T23:44:28.341Z,71.85
2022-11-26T23:47:01.153Z,71.75
2022-11-26T23:49:34.031Z,71.79
2022-11-26T23:52:07.173Z,71.28
2022-11-26T23:54:41.305Z,71.06
2022-11-26T23:57:15.275Z,70.54
2022-11-26T23:59:48.176Z,71.31
